Time;durP1;ratioP1;P1;durP2;ratioP2;P2;SDS_P1;SDS_P2;PMS_P1;PMS_P2;Temp;Humidity;BMP_temperature;BMP_pressure;BME280_temperature;BME280_humidity;BME280_pressure;Samples;Min_cycle;Max_cycle;Signal;HPM_P1;HPM_P2
2023/04/05 00:01:36;;;;;;;12.87;6.10;;;4.20;99.90;;;;;;7288319;19;20580;-79
2023/04/05 00:04:03;;;;;;;13.97;5.73;;;4.30;99.90;;;;;;7286312;19;20207;-78
2023/04/05 00:06:29;;;;;;;15.30;6.50;;;4.20;99.90;;;;;;7287465;19;20198;-78
2023/04/05 00:08:59;;;;;;;14.70;6.20;;;4.40;99.90;;;;;;7287970;19;20673;-78
2023/04/05 00:11:28;;;;;;;14.90;6.47;;;4.50;99.90;;;;;;7299720;19;20203;-78
2023/04/05 00:13:55;;;;;;;13.67;6.37;;;4.50;99.90;;;;;;7290098;19;20666;-78
2023/04/05 00:16:21;;;;;;;13.63;6.57;;;4.40;99.90;;;;;;7287277;19;20652;-78
2023/04/05 00:18:50;;;;;;;16.30;6.87;;;4.30;99.90;;;;;;7286050;19;20197;-79
2023/04/05 00:21:25;;;;;;;14.27;6.30;;;4.10;99.90;;;;;;7296070;19;20201;-77
2023/04/05 00:23:53;;;;;;;16.50;6.77;;;3.90;99.90;;;;;;7287200;19;20268;-78
2023/04/05 00:26:19;;;;;;;16.37;7.10;;;3.80;99.90;;;;;;7285336;19;20759;-78
2023/04/05 00:28:49;;;;;;;14.00;6.57;;;3.70;99.90;;;;;;7285747;19;20683;-78
2023/04/05 00:31:15;;;;;;;16.17;7.13;;;3.90;99.90;;;;;;7295495;19;20193;-77
2023/04/05 00:33:41;;;;;;;14.53;7.27;;;3.80;99.90;;;;;;7307234;19;20221;-78
2023/04/05 00:36:15;;;;;;;13.57;7.20;;;3.60;99.90;;;;;;7286060;19;20193;-78
2023/04/05 00:38:42;;;;;;;14.47;7.13;;;3.40;99.90;;;;;;7286966;19;20193;-79
2023/04/05 00:41:09;;;;;;;15.57;7.47;;;3.50;99.90;;;;;;7286686;19;20539;-78
2023/04/05 00:43:35;;;;;;;14.77;6.43;;;3.60;99.90;;;;;;7285489;19;20194;-78
2023/04/05 00:46:01;;;;;;;14.93;6.93;;;3.60;99.90;;;;;;7284749;19;20538;-79
2023/04/05 00:48:28;;;;;;;14.07;7.30;;;3.50;99.90;;;;;;7284624;19;20545;-78
2023/04/05 00:50:54;;;;;;;16.10;7.70;;;3.50;99.90;;;;;;7284527;19;20214;-78
2023/04/05 00:53:20;;;;;;;15.23;7.53;;;3.50;99.90;;;;;;7286272;19;20192;-78
2023/04/05 00:55:47;;;;;;;21.17;8.40;;;3.50;99.90;;;;;;7291407;19;20189;-78
2023/04/05 00:58:18;;;;;;;18.83;8.57;;;3.50;99.90;;;;;;7306397;19;20609;-79
2023/04/05 01:01:13;;;;;;;17.17;8.23;;;3.50;99.90;;;;;;7285600;19;20197;-79
2023/04/05 01:03:43;;;;;;;20.77;8.70;;;3.50;99.90;;;;;;7182087;19;2006440;-80
2023/04/05 01:06:12;;;;;;;17.50;8.63;;;3.50;99.90;;;;;;7285495;19;20193;-79
2023/04/05 01:08:48;;;;;;;20.03;8.57;;;3.60;99.90;;;;;;7285520;19;20187;-78
2023/04/05 01:11:16;;;;;;;16.10;8.63;;;3.60;99.90;;;;;;7284574;19;20658;-79
2023/04/05 01:13:45;;;;;;;15.67;8.23;;;3.60;99.90;;;;;;7285258;19;20289;-79
2023/04/05 01:16:11;;;;;;;16.37;7.87;;;3.50;99.90;;;;;;7283402;19;20944;-79
2023/04/05 01:18:37;;;;;;;18.97;8.53;;;3.50;99.90;;;;;;7283968;19;20185;-78
2023/04/05 01:21:38;;;;;;;19.17;8.27;;;3.50;99.90;;;;;;7283213;19;20186;-79
2023/04/05 01:24:56;;;;;;;19.80;8.73;;;3.30;99.90;;;;;;7182255;19;2004547;-78
2023/04/05 01:27:39;;;;;;;17.27;8.17;;;3.20;99.90;;;;;;7078501;19;2004548;-78
2023/04/05 01:30:32;;;;;;;16.57;7.93;;;3.20;99.90;;;;;;7285038;19;20239;-78
2023/04/05 01:33:07;;;;;;;19.90;8.03;;;3.10;99.90;;;;;;7181696;19;2004752;-79
2023/04/05 01:35:50;;;;;;;17.77;7.80;;;2.80;99.90;;;;;;7285030;19;20189;-78
2023/04/05 01:38:21;;;;;;;17.07;7.80;;;2.70;99.90;;;;;;7266504;19;20189;-78
2023/04/05 01:40:47;;;;;;;16.20;8.00;;;2.60;99.90;;;;;;7289615;19;20261;-78
2023/04/05 01:43:15;;;;;;;14.37;7.47;;;2.50;99.90;;;;;;7314042;19;20188;-78
2023/04/05 01:45:42;;;;;;;16.63;7.63;;;2.40;99.90;;;;;;7291252;19;20659;-78
2023/04/05 01:48:09;;;;;;;18.10;7.60;;;2.50;99.90;;;;;;7291403;19;20213;-79
2023/04/05 01:50:35;;;;;;;16.63;7.60;;;2.40;99.90;;;;;;7289577;19;20223;-79
2023/04/05 01:53:01;;;;;;;16.87;7.47;;;2.40;99.90;;;;;;7289768;19;20603;-78
2023/04/05 01:55:26;;;;;;;18.17;8.23;;;2.40;99.90;;;;;;7291321;19;20194;-78
2023/04/05 01:57:55;;;;;;;15.40;7.43;;;2.30;99.90;;;;;;7287871;19;20206;-78
2023/04/05 02:00:21;;;;;;;16.50;7.50;;;2.40;99.90;;;;;;7290359;19;20226;-78
2023/04/05 02:02:47;;;;;;;15.83;7.03;;;2.30;99.90;;;;;;7291004;19;20191;-78
2023/04/05 02:05:13;;;;;;;15.07;7.57;;;2.20;99.90;;;;;;7311049;19;20195;-78
2023/04/05 02:07:39;;;;;;;16.37;8.00;;;2.30;99.90;;;;;;7290368;19;20616;-78
2023/04/05 02:10:06;;;;;;;15.03;8.03;;;2.20;99.90;;;;;;7290370;19;20602;-80
2023/04/05 02:12:31;;;;;;;17.20;8.00;;;2.20;99.90;;;;;;7288221;19;20191;-78
2023/04/05 02:14:57;;;;;;;17.10;8.03;;;2.20;99.90;;;;;;7289338;19;20531;-78
2023/04/05 02:17:23;;;;;;;14.93;7.53;;;2.30;99.90;;;;;;7286817;19;20191;-79
2023/04/05 02:19:51;;;;;;;14.33;7.47;;;2.30;99.90;;;;;;7289665;19;20190;-78
2023/04/05 02:22:18;;;;;;;17.47;7.47;;;2.30;99.90;;;;;;7290310;19;20195;-78
2023/04/05 02:24:44;;;;;;;16.63;7.90;;;2.30;99.90;;;;;;7311713;19;20189;-78
2023/04/05 02:27:10;;;;;;;16.47;7.80;;;2.20;99.90;;;;;;7289524;19;20183;-78
2023/04/05 02:29:36;;;;;;;17.47;7.57;;;2.30;99.90;;;;;;7289302;19;20511;-78
2023/04/05 02:32:02;;;;;;;17.37;8.37;;;2.30;99.90;;;;;;7288609;19;20220;-80
2023/04/05 02:34:27;;;;;;;15.97;8.30;;;2.50;99.90;;;;;;7288200;19;20208;-78
2023/04/05 02:36:53;;;;;;;16.27;7.93;;;2.70;99.90;;;;;;7288424;19;20276;-79
2023/04/05 02:39:19;;;;;;;17.77;8.40;;;2.60;99.90;;;;;;7287407;19;20620;-78
2023/04/05 02:41:45;;;;;;;18.57;7.30;;;2.60;99.90;;;;;;7309772;19;20564;-77
2023/04/05 02:44:12;;;;;;;18.13;7.97;;;2.60;99.90;;;;;;7301326;19;20706;-78
2023/04/05 02:46:38;;;;;;;21.37;8.23;;;2.40;99.90;;;;;;7288202;19;20200;-79
2023/04/05 02:49:05;;;;;;;15.93;7.87;;;2.40;99.90;;;;;;7288106;19;20208;-79
2023/04/05 02:51:35;;;;;;;14.37;7.50;;;2.40;99.90;;;;;;7288774;19;20192;-78
2023/04/05 02:54:05;;;;;;;15.00;7.37;;;2.20;99.90;;;;;;7287357;19;20233;-78
2023/04/05 02:56:33;;;;;;;17.57;7.80;;;2.00;99.90;;;;;;7287749;19;20201;-78
2023/04/05 02:58:59;;;;;;;16.67;7.80;;;2.00;99.90;;;;;;7288256;19;20194;-78
2023/04/05 03:01:28;;;;;;;15.33;7.90;;;2.20;99.90;;;;;;7289539;19;20192;-78
2023/04/05 03:03:55;;;;;;;17.40;7.70;;;2.20;99.90;;;;;;7288257;19;20194;-78
2023/04/05 03:06:21;;;;;;;17.07;8.23;;;2.10;99.90;;;;;;7288251;19;20182;-77
2023/04/05 03:08:50;;;;;;;21.03;8.63;;;2.00;99.90;;;;;;7288989;19;20201;-78
2023/04/05 03:11:20;;;;;;;19.43;8.83;;;2.00;99.90;;;;;;7286465;19;20237;-78
2023/04/05 03:13:50;;;;;;;15.20;7.83;;;2.00;99.90;;;;;;7287296;19;20642;-77
2023/04/05 03:16:45;;;;;;;18.93;7.80;;;2.10;99.90;;;;;;7289088;19;20187;-78
2023/04/05 03:19:23;;;;;;;16.60;8.50;;;2.10;99.90;;;;;;7185703;19;2005515;-78
2023/04/05 03:21:53;;;;;;;17.67;8.20;;;2.20;99.90;;;;;;7289370;19;20664;-78
2023/04/05 03:24:26;;;;;;;14.80;7.83;;;2.10;99.90;;;;;;7285572;19;20667;-78
2023/04/05 03:26:55;;;;;;;15.50;8.30;;;2.20;99.90;;;;;;7289000;19;20203;-78
2023/04/05 03:29:23;;;;;;;15.83;8.17;;;2.20;99.90;;;;;;7288900;19;20187;-78
2023/04/05 03:31:50;;;;;;;18.33;8.30;;;2.20;99.90;;;;;;7285835;19;20208;-78
2023/04/05 03:34:21;;;;;;;16.40;8.00;;;2.30;99.90;;;;;;7288279;19;20540;-78
2023/04/05 03:36:48;;;;;;;16.23;7.60;;;2.40;99.90;;;;;;7286423;19;20188;-78
2023/04/05 03:39:36;;;;;;;18.10;8.30;;;2.40;99.90;;;;;;7286996;19;20237;-78
2023/04/05 03:42:01;;;;;;;16.33;7.97;;;2.30;99.90;;;;;;7288040;19;20194;-78
2023/04/05 03:44:28;;;;;;;15.27;8.30;;;2.40;99.90;;;;;;7284952;19;20195;-78
2023/04/05 03:46:54;;;;;;;17.30;8.27;;;2.50;99.90;;;;;;7288603;19;20187;-78
2023/04/05 03:49:22;;;;;;;19.17;8.47;;;2.50;99.90;;;;;;7287614;19;20540;-78
2023/04/05 03:51:48;;;;;;;17.40;8.20;;;2.50;99.90;;;;;;7287025;19;20666;-78
2023/04/05 03:54:16;;;;;;;16.30;7.97;;;2.50;99.90;;;;;;7298069;19;20553;-77
2023/04/05 03:56:42;;;;;;;18.47;8.33;;;2.50;99.90;;;;;;7304525;19;20223;-79
2023/04/05 03:59:12;;;;;;;17.23;8.43;;;2.60;99.90;;;;;;7287356;19;20200;-79
2023/04/05 04:01:39;;;;;;;17.30;8.83;;;2.60;99.90;;;;;;7285123;19;20553;-79
2023/04/05 04:04:05;;;;;;;20.23;8.33;;;2.60;99.90;;;;;;7285664;19;20212;-79
2023/04/05 04:06:31;;;;;;;19.97;8.00;;;2.60;99.90;;;;;;7286443;19;20650;-79
2023/04/05 04:08:57;;;;;;;18.73;8.53;;;2.60;99.90;;;;;;7286740;19;20517;-79
2023/04/05 04:11:23;;;;;;;18.83;7.40;;;2.60;99.90;;;;;;7285091;19;20187;-79
2023/04/05 04:13:50;;;;;;;15.27;8.60;;;2.60;99.90;;;;;;7287946;19;20189;-78
2023/04/05 04:16:34;;;;;;;17.93;8.43;;;2.50;99.90;;;;;;7284351;19;20187;-78
2023/04/05 04:19:20;;;;;;;17.90;8.00;;;2.40;99.90;;;;;;7265094;19;20220;-78
2023/04/05 04:22:01;;;;;;;22.43;8.43;;;2.30;99.90;;;;;;7287447;19;20644;-78
2023/04/05 04:24:48;;;;;;;18.30;8.27;;;2.30;99.90;;;;;;7286383;19;20224;-78
2023/04/05 04:27:34;;;;;;;17.50;8.70;;;2.30;99.90;;;;;;7184632;19;2004704;-79
2023/04/05 04:30:28;;;;;;;22.93;8.73;;;2.30;99.90;;;;;;7183149;19;2004806;-79
2023/04/05 04:33:23;;;;;;;19.07;8.47;;;2.30;99.90;;;;;;7184713;19;2004816;-79
2023/04/05 04:36:12;;;;;;;16.80;8.53;;;2.20;99.90;;;;;;7285487;19;20624;-79
2023/04/05 04:38:56;;;;;;;19.00;8.27;;;2.10;99.90;;;;;;7184487;19;2004631;-79
2023/04/05 04:41:49;;;;;;;17.13;8.30;;;1.90;99.90;;;;;;7264470;19;20539;-79
2023/04/05 04:44:35;;;;;;;20.03;9.07;;;1.80;99.90;;;;;;7285885;19;20224;-79
2023/04/05 04:47:16;;;;;;;20.07;8.10;;;1.60;99.90;;;;;;7286484;19;20198;-79
2023/04/05 04:49:53;;;;;;;20.83;8.33;;;1.50;99.90;;;;;;7184195;19;2004687;-79
2023/04/05 04:52:18;;;;;;;19.10;8.07;;;1.30;99.90;;;;;;7282996;19;20216;-79
2023/04/05 04:54:46;;;;;;;19.43;8.30;;;1.20;99.90;;;;;;7308111;19;20199;-79
2023/04/05 04:57:11;;;;;;;22.40;8.37;;;1.30;99.90;;;;;;7285686;19;20177;-79
2023/04/05 04:59:37;;;;;;;17.10;7.87;;;1.30;99.90;;;;;;7287042;19;20182;-79
2023/04/05 05:02:07;;;;;;;18.13;8.70;;;1.30;99.90;;;;;;7284435;19;20560;-79
2023/04/05 05:04:33;;;;;;;19.40;8.57;;;1.20;99.90;;;;;;7282769;19;20222;-79
2023/04/05 05:06:58;;;;;;;18.73;8.20;;;1.30;99.90;;;;;;7285606;19;20203;-79
2023/04/05 05:09:24;;;;;;;22.93;8.20;;;1.30;99.90;;;;;;7284866;19;20593;-79
2023/04/05 05:11:57;;;;;;;20.87;8.63;;;1.30;99.90;;;;;;7283400;19;20183;-79
2023/04/05 05:14:23;;;;;;;18.73;8.50;;;1.30;99.90;;;;;;7284412;19;20194;-79
2023/04/05 05:16:49;;;;;;;17.93;8.73;;;1.50;99.90;;;;;;7284566;19;20190;-79
2023/04/05 05:19:17;;;;;;;16.43;7.97;;;1.50;99.90;;;;;;7291556;19;20191;-78
2023/04/05 05:21:48;;;;;;;16.63;7.60;;;1.50;99.90;;;;;;7306045;19;20340;-76
2023/04/05 05:24:13;;;;;;;18.73;8.70;;;1.40;99.90;;;;;;7306342;19;20185;-79
2023/04/05 05:26:39;;;;;;;20.10;8.90;;;1.40;99.90;;;;;;7284763;19;20206;-79
2023/04/05 05:29:05;;;;;;;18.17;9.00;;;1.30;99.90;;;;;;7285585;19;20189;-79
2023/04/05 05:31:34;;;;;;;19.00;8.17;;;1.30;99.90;;;;;;7282893;19;20205;-79
2023/04/05 05:33:59;;;;;;;20.17;8.77;;;1.30;99.90;;;;;;7285901;19;20583;-79
2023/04/05 05:36:26;;;;;;;19.17;8.77;;;1.30;99.90;;;;;;7283800;19;20205;-79
2023/04/05 05:38:53;;;;;;;21.80;8.87;;;1.40;99.90;;;;;;7283172;19;20865;-79
2023/04/05 05:41:20;;;;;;;18.93;7.90;;;1.50;99.90;;;;;;7284554;19;20188;-79
2023/04/05 05:43:46;;;;;;;20.60;9.30;;;1.70;99.90;;;;;;7305219;19;20183;-77
2023/04/05 05:46:12;;;;;;;20.73;8.90;;;1.90;99.90;;;;;;7293225;19;20556;-79
2023/04/05 05:48:37;;;;;;;15.93;8.57;;;2.20;99.90;;;;;;7285454;19;20183;-79
2023/04/05 05:51:08;;;;;;;17.07;8.43;;;3.00;99.90;;;;;;7284274;19;20232;-79
2023/04/05 05:53:36;;;;;;;18.00;9.10;;;4.00;99.90;;;;;;7284325;19;20207;-79
2023/04/05 05:56:01;;;;;;;17.40;8.50;;;5.00;99.90;;;;;;7282195;19;20248;-79
2023/04/05 05:58:27;;;;;;;18.77;7.53;;;5.90;99.90;;;;;;7283238;19;20672;-79
2023/04/05 06:00:55;;;;;;;18.67;7.77;;;6.80;99.90;;;;;;7283889;19;20193;-79
2023/04/05 06:03:24;;;;;;;16.97;7.73;;;7.70;99.90;;;;;;7282947;19;20188;-79
2023/04/05 06:05:57;;;;;;;15.13;7.03;;;8.40;99.90;;;;;;7283314;19;20208;-78
2023/04/05 06:08:24;;;;;;;16.07;6.93;;;9.20;99.90;;;;;;7283344;19;20187;-79
2023/04/05 06:10:51;;;;;;;16.63;7.63;;;9.80;99.90;;;;;;7283434;19;20194;-78
2023/04/05 06:13:16;;;;;;;20.20;8.07;;;10.10;99.90;;;;;;7297982;19;20194;-79
2023/04/05 06:15:42;;;;;;;16.17;7.70;;;10.10;99.90;;;;;;7297239;19;20555;-79
2023/04/05 06:18:08;;;;;;;16.53;7.90;;;9.90;99.90;;;;;;7282196;19;20196;-79
2023/04/05 06:20:39;;;;;;;18.37;7.87;;;9.50;99.90;;;;;;7284579;19;20198;-80
2023/04/05 06:23:08;;;;;;;18.63;8.57;;;9.00;99.90;;;;;;7284072;19;20191;-79
2023/04/05 06:25:34;;;;;;;17.87;8.67;;;8.50;99.90;;;;;;7288219;19;20198;-79
2023/04/05 06:28:04;;;;;;;22.23;9.87;;;8.10;99.90;;;;;;7290298;19;20540;-79
2023/04/05 06:30:31;;;;;;;20.70;10.77;;;7.80;99.90;;;;;;7291502;19;20208;-80
2023/04/05 06:32:57;;;;;;;20.13;9.97;;;7.50;99.90;;;;;;7289948;19;20261;-79
2023/04/05 06:35:24;;;;;;;23.47;9.83;;;7.30;99.90;;;;;;7291551;19;20199;-79
2023/04/05 06:37:50;;;;;;;25.37;10.70;;;7.20;99.90;;;;;;7289864;19;20559;-79
2023/04/05 06:40:17;;;;;;;31.03;11.30;;;7.10;99.90;;;;;;7312555;19;20209;-79
2023/04/05 06:42:43;;;;;;;21.87;10.60;;;7.00;99.90;;;;;;7290473;19;20187;-79
2023/04/05 06:45:15;;;;;;;23.80;11.20;;;7.00;99.90;;;;;;7288560;19;20702;-79
2023/04/05 06:47:40;;;;;;;21.73;10.37;;;7.00;99.90;;;;;;7290544;19;20190;-79
2023/04/05 06:50:07;;;;;;;18.93;9.47;;;7.80;99.90;;;;;;7290883;19;20211;-79
2023/04/05 06:52:33;;;;;;;20.20;9.27;;;9.90;99.90;;;;;;7289336;19;20179;-79
2023/04/05 06:55:00;;;;;;;17.37;9.10;;;11.50;99.90;;;;;;7289552;19;20196;-79
2023/04/05 06:57:26;;;;;;;22.87;10.20;;;13.20;99.90;;;;;;7287820;19;20197;-79
2023/04/05 06:59:53;;;;;;;19.83;9.70;;;14.40;99.90;;;;;;7289926;19;20194;-79
2023/04/05 07:02:19;;;;;;;18.43;9.67;;;16.10;99.90;;;;;;7289534;19;20548;-79
2023/04/05 07:04:45;;;;;;;16.07;8.67;;;17.50;99.90;;;;;;7308671;19;20218;-79
2023/04/05 07:07:12;;;;;;;15.47;8.43;;;18.50;99.60;;;;;;7288488;19;20654;-79
2023/04/05 07:09:39;;;;;;;19.57;9.50;;;19.40;96.00;;;;;;7289601;19;20280;-79
2023/04/05 07:12:06;;;;;;;19.60;9.90;;;20.40;92.00;;;;;;7287630;19;20191;-79
2023/04/05 07:14:34;;;;;;;19.07;9.03;;;21.10;86.70;;;;;;7289786;19;20246;-80
2023/04/05 07:17:00;;;;;;;17.43;9.30;;;21.70;81.30;;;;;;7288242;19;20188;-80
2023/04/05 07:19:26;;;;;;;20.57;9.53;;;22.20;77.10;;;;;;7288571;19;20661;-80
2023/04/05 07:21:52;;;;;;;17.00;8.93;;;22.70;74.10;;;;;;7289013;19;20216;-80
2023/04/05 07:24:18;;;;;;;18.43;9.80;;;23.40;69.00;;;;;;7292457;19;20637;-80
2023/04/05 07:26:44;;;;;;;21.70;9.97;;;24.00;66.70;;;;;;7311198;19;20240;-79
2023/04/05 07:29:11;;;;;;;17.10;9.27;;;24.30;64.00;;;;;;7286135;19;20181;-80
2023/04/05 07:31:38;;;;;;;16.10;9.43;;;24.50;62.40;;;;;;7288615;19;20250;-79
2023/04/05 07:34:04;;;;;;;16.53;9.13;;;24.80;59.20;;;;;;7288097;19;20196;-79
2023/04/05 07:36:30;;;;;;;18.77;9.50;;;25.10;58.60;;;;;;7284549;19;20648;-79
2023/04/05 07:38:59;;;;;;;16.87;9.33;;;25.70;57.70;;;;;;7287331;19;20188;-79
2023/04/05 07:41:26;;;;;;;17.20;9.07;;;26.10;57.00;;;;;;7288434;19;20280;-79
2023/04/05 07:43:53;;;;;;;17.50;8.93;;;25.80;56.80;;;;;;7288357;19;20189;-79
2023/04/05 07:46:19;;;;;;;16.67;9.40;;;26.60;55.90;;;;;;7287326;19;20252;-79
2023/04/05 07:48:48;;;;;;;15.25;8.73;;;27.40;54.20;;;;;;7311224;19;20213;-80
2023/04/05 07:51:14;;;;;;;13.90;9.35;;;27.90;52.30;;;;;;7288357;19;20188;-80
2023/04/05 07:53:41;;;;;;;14.35;8.75;;;28.30;51.30;;;;;;7288775;19;20695;-80
2023/04/05 07:56:13;;;;;;;16.63;9.90;;;28.70;50.00;;;;;;7285490;19;20225;-79
2023/04/05 07:58:42;;;;;;;15.93;9.00;;;29.20;48.80;;;;;;7286177;19;20193;-80
2023/04/05 08:01:09;;;;;;;17.45;9.43;;;29.40;48.50;;;;;;7287625;19;20550;-80
2023/04/05 08:03:35;;;;;;;16.88;9.38;;;29.60;47.70;;;;;;7286555;19;20196;-80
2023/04/05 08:06:17;;;;;;;19.80;9.13;;;29.60;46.60;;;;;;7287955;19;20197;-80
2023/04/05 08:08:44;;;;;;;15.65;8.38;;;29.70;46.30;;;;;;7288836;19;20197;-80
2023/04/05 08:11:11;;;;;;;15.00;8.90;;;29.90;45.50;;;;;;7288485;19;20312;-80
2023/04/05 08:13:40;;;;;;;14.55;8.55;;;30.40;44.30;;;;;;7288317;19;20242;-80
2023/04/05 08:16:06;;;;;;;14.75;9.20;;;30.50;43.40;;;;;;7287360;19;20209;-80
2023/04/05 08:18:32;;;;;;;14.20;8.05;;;30.50;42.60;;;;;;7287458;19;20200;-79
2023/04/05 08:20:58;;;;;;;13.40;8.43;;;30.50;42.90;;;;;;7286034;19;20668;-79
2023/04/05 08:23:24;;;;;;;12.70;7.80;;;31.00;42.70;;;;;;7286413;19;20561;-79
2023/04/05 08:25:50;;;;;;;14.48;7.95;;;31.40;42.00;;;;;;7285414;19;20196;-79
2023/04/05 08:28:16;;;;;;;13.85;8.48;;;31.00;40.70;;;;;;7306739;19;20277;-80
2023/04/05 08:30:41;;;;;;;16.55;8.70;;;31.10;40.30;;;;;;7285653;19;20193;-79
2023/04/05 08:33:07;;;;;;;12.18;8.63;;;31.00;41.00;;;;;;7286602;19;20184;-79
2023/04/05 08:35:35;;;;;;;15.50;7.70;;;31.10;40.20;;;;;;7285216;19;20547;-79
2023/04/05 08:38:01;;;;;;;12.43;7.40;;;31.10;39.90;;;;;;7284529;19;20196;-79
2023/04/05 08:40:44;;;;;;;12.10;7.85;;;30.70;40.10;;;;;;7285813;19;20221;-79
2023/04/05 08:43:15;;;;;;;13.23;7.53;;;30.00;40.40;;;;;;7286691;19;20193;-79
2023/04/05 08:45:52;;;;;;;13.63;7.47;;;30.60;39.60;;;;;;7287622;19;20197;-79
2023/04/05 08:48:19;;;;;;;11.43;7.47;;;30.70;37.20;;;;;;7283239;19;20260;-78
2023/04/05 08:50:52;;;;;;;15.65;7.70;;;30.10;39.30;;;;;;7309349;19;20185;-79
2023/04/05 08:53:18;;;;;;;13.13;7.90;;;30.30;38.50;;;;;;7275206;19;20310;-79
2023/04/05 08:55:52;;;;;;;13.60;7.22;;;28.80;37.70;;;;;;7306920;19;20206;-79
2023/04/05 08:58:24;;;;;;;16.38;7.93;;;28.80;38.10;;;;;;7274327;19;20661;-78
2023/04/05 09:00:51;;;;;;;14.73;7.20;;;29.10;38.20;;;;;;7285827;19;20188;-78
2023/04/05 09:03:22;;;;;;;10.90;6.70;;;28.60;38.50;;;;;;7303477;19;20211;-78
2023/04/05 09:05:50;;;;;;;13.40;6.63;;;28.30;37.80;;;;;;7297533;19;20180;-78
2023/04/05 09:08:16;;;;;;;11.88;7.22;;;28.40;37.90;;;;;;7306907;19;20188;-79
2023/04/05 09:10:43;;;;;;;11.55;6.45;;;28.20;38.30;;;;;;7284423;19;20196;-79
2023/04/05 09:13:09;;;;;;;13.07;6.90;;;28.80;39.50;;;;;;7283362;19;20203;-79
2023/04/05 09:15:37;;;;;;;12.73;6.85;;;27.50;37.90;;;;;;7283501;19;20184;-79
2023/04/05 09:18:03;;;;;;;16.50;7.95;;;27.60;42.00;;;;;;7283486;19;20185;-79
2023/04/05 09:20:29;;;;;;;13.68;7.25;;;28.10;39.90;;;;;;7285103;19;20180;-79
2023/04/05 09:22:56;;;;;;;16.30;7.63;;;29.10;39.00;;;;;;7283450;19;20564;-79
2023/04/05 09:25:30;;;;;;;15.98;7.70;;;29.30;38.70;;;;;;7281570;19;20191;-79
2023/04/05 09:27:57;;;;;;;12.73;7.57;;;28.90;38.70;;;;;;7282228;19;20180;-78
2023/04/05 09:30:24;;;;;;;18.00;8.35;;;26.60;39.10;;;;;;7282796;19;20385;-78
2023/04/05 09:32:51;;;;;;;16.33;8.03;;;23.90;40.90;;;;;;7282474;19;20184;-78
2023/04/05 09:35:23;;;;;;;14.40;8.53;;;21.90;43.10;;;;;;7305462;19;20177;-78
2023/04/05 09:37:53;;;;;;;15.27;7.60;;;20.30;45.10;;;;;;7264736;19;20190;-79
2023/04/05 09:40:19;;;;;;;20.77;8.20;;;19.20;46.80;;;;;;7286664;19;21806;-78
2023/04/05 09:42:45;;;;;;;18.87;7.93;;;18.60;48.60;;;;;;7306911;19;20194;-79
2023/04/05 09:45:11;;;;;;;14.97;7.77;;;17.90;49.50;;;;;;7283834;19;20188;-78
2023/04/05 09:47:56;;;;;;;17.40;7.43;;;17.30;50.10;;;;;;7280063;19;20180;-78
2023/04/05 09:50:22;;;;;;;14.67;8.13;;;17.30;52.00;;;;;;7180031;19;2004617;-78
2023/04/05 09:52:48;;;;;;;16.97;7.90;;;18.20;50.70;;;;;;7289452;19;20189;-78
2023/04/05 09:55:26;;;;;;;17.50;7.80;;;20.20;48.80;;;;;;7307067;19;20203;-80
2023/04/05 09:57:52;;;;;;;14.87;7.97;;;20.40;48.50;;;;;;7179617;19;2005772;-78
2023/04/05 10:00:20;;;;;;;16.43;8.17;;;21.40;46.90;;;;;;7303951;19;20198;-79
2023/04/05 10:02:50;;;;;;;13.07;7.70;;;22.60;46.40;;;;;;7312837;19;20647;-80
2023/04/05 10:05:16;;;;;;;14.13;7.90;;;23.80;44.20;;;;;;7289024;19;20196;-78
2023/04/05 10:07:42;;;;;;;14.67;8.17;;;25.40;42.70;;;;;;7291645;19;20193;-78
2023/04/05 10:10:11;;;;;;;15.10;8.80;;;26.50;42.90;;;;;;7288959;19;20220;-78
2023/04/05 10:12:40;;;;;;;15.00;8.70;;;26.10;41.60;;;;;;7290823;19;20228;-80
2023/04/05 10:15:07;;;;;;;15.33;8.73;;;26.00;43.10;;;;;;7290997;19;20192;-80
2023/04/05 10:17:38;;;;;;;15.73;9.00;;;25.10;41.90;;;;;;7289434;19;20545;-79
2023/04/05 10:20:15;;;;;;;13.00;7.97;;;25.20;41.60;;;;;;7289866;19;20569;-79
2023/04/05 10:22:50;;;;;;;13.40;8.07;;;26.30;43.40;;;;;;7289999;19;20279;-79
2023/04/05 10:25:50;;;;;;;12.60;8.07;;;27.60;41.50;;;;;;7288840;19;20598;-79
2023/04/05 10:28:36;;;;;;;13.75;8.45;;;28.10;41.00;;;;;;7189312;19;2004935;-80
2023/04/05 10:31:23;;;;;;;17.45;8.80;;;26.30;39.60;;;;;;7187799;19;2005040;-79
2023/04/05 10:33:59;;;;;;;16.00;9.30;;;25.30;40.70;;;;;;7274896;19;20732;-79
2023/04/05 10:36:54;;;;;;;18.30;9.10;;;25.00;41.40;;;;;;7288706;19;20202;-79
2023/04/05 10:39:27;;;;;;;15.65;9.13;;;25.70;41.50;;;;;;7267355;19;20200;-79
2023/04/05 10:41:59;;;;;;;16.38;9.35;;;26.50;41.30;;;;;;7290461;19;20595;-79
2023/04/05 10:44:25;;;;;;;16.63;9.02;;;25.60;41.40;;;;;;7288593;19;20196;-79
2023/04/05 10:46:52;;;;;;;18.53;9.63;;;25.50;43.30;;;;;;7289056;19;20523;-79
2023/04/05 10:49:28;;;;;;;14.80;9.30;;;24.80;43.70;;;;;;7297813;19;20212;-79
2023/04/05 10:51:54;;;;;;;17.07;9.30;;;25.40;45.10;;;;;;7288770;19;20200;-79
2023/04/05 10:54:21;;;;;;;15.35;8.88;;;25.50;43.90;;;;;;7289009;19;20203;-80
2023/04/05 10:56:47;;;;;;;14.53;9.20;;;25.50;44.10;;;;;;7309707;19;20204;-80
2023/04/05 10:59:14;;;;;;;14.80;9.63;;;24.80;42.50;;;;;;7289213;19;20671;-80
2023/04/05 11:01:40;;;;;;;15.77;10.07;;;25.20;42.20;;;;;;7287927;19;20971;-80
2023/04/05 11:04:16;;;;;;;15.80;8.68;;;25.50;41.30;;;;;;7287415;19;20201;-80
2023/04/05 11:06:46;;;;;;;15.23;9.17;;;24.70;42.40;;;;;;7289703;19;20230;-80
2023/04/05 11:09:19;;;;;;;14.65;9.35;;;26.00;41.40;;;;;;7288785;19;20245;-79
2023/04/05 11:11:45;;;;;;;16.08;9.52;;;26.30;40.50;;;;;;7287716;19;20188;-79
2023/04/05 11:14:19;;;;;;;13.88;8.95;;;25.90;41.10;;;;;;7288912;19;20192;-80
2023/04/05 11:16:47;;;;;;;15.25;8.23;;;26.00;40.50;;;;;;7287450;19;20188;-79
2023/04/05 11:19:16;;;;;;;16.53;8.80;;;24.80;42.10;;;;;;7288775;19;20190;-79
2023/04/05 11:21:43;;;;;;;15.20;9.48;;;24.20;42.80;;;;;;7288881;19;20645;-80
2023/04/05 11:24:11;;;;;;;17.35;9.30;;;24.80;41.80;;;;;;7288823;19;20609;-79
2023/04/05 11:26:40;;;;;;;16.57;9.20;;;24.20;44.30;;;;;;7286983;19;20189;-79
2023/04/05 11:29:06;;;;;;;15.20;8.90;;;24.00;43.90;;;;;;7287258;19;20252;-79
2023/04/05 11:31:32;;;;;;;13.60;8.50;;;24.60;44.30;;;;;;7288174;19;20205;-79
2023/04/05 11:34:10;;;;;;;16.40;9.52;;;25.80;42.80;;;;;;7288621;19;20193;-79
2023/04/05 11:36:44;;;;;;;14.00;8.82;;;26.60;41.10;;;;;;7287627;19;20683;-79
2023/04/05 11:39:22;;;;;;;14.63;9.13;;;26.60;40.30;;;;;;7288805;19;20195;-79
2023/04/05 11:41:58;;;;;;;19.27;9.93;;;26.00;41.10;;;;;;7289397;19;20188;-79
2023/04/05 11:44:24;;;;;;;13.25;9.25;;;25.40;41.40;;;;;;7183928;19;2004560;-79
2023/04/05 11:46:53;;;;;;;18.42;10.45;;;25.40;42.70;;;;;;7286980;19;20648;-79
2023/04/05 11:49:25;;;;;;;18.60;10.40;;;26.00;43.40;;;;;;7296341;19;20663;-79
2023/04/05 11:51:52;;;;;;;17.63;10.27;;;26.30;42.60;;;;;;7286471;19;20189;-79
2023/04/05 11:54:33;;;;;;;18.00;10.23;;;25.80;44.10;;;;;;7300183;19;20197;-78
2023/04/05 11:57:00;;;;;;;15.82;9.98;;;25.50;42.20;;;;;;7286553;19;20185;-81
2023/04/05 11:59:32;;;;;;;16.27;10.45;;;26.10;43.30;;;;;;7286455;19;20180;-79
2023/04/05 12:01:59;;;;;;;20.17;11.35;;;26.70;42.50;;;;;;7285883;19;20184;-79
2023/04/05 12:04:25;;;;;;;16.73;10.48;;;26.60;41.80;;;;;;7285983;19;20599;-79
2023/04/05 12:07:28;;;;;;;18.15;10.27;;;26.20;40.30;;;;;;7286542;19;20189;-79
2023/04/05 12:10:14;;;;;;;18.92;11.00;;;26.50;41.70;;;;;;7184447;19;2004594;-80
2023/04/05 12:12:42;;;;;;;16.75;10.60;;;27.20;42.70;;;;;;7285352;19;20324;-80
2023/04/05 12:15:10;;;;;;;21.95;11.23;;;27.80;41.10;;;;;;7288176;19;20661;-79
2023/04/05 12:17:37;;;;;;;17.85;11.45;;;26.90;40.10;;;;;;7284125;19;20189;-80
2023/04/05 12:20:04;;;;;;;18.75;10.95;;;24.70;41.00;;;;;;7286075;19;20215;-80
2023/04/05 12:22:30;;;;;;;16.58;10.75;;;25.30;42.80;;;;;;7285591;19;20189;-80
2023/04/05 12:24:56;;;;;;;17.00;11.25;;;26.20;42.50;;;;;;7286562;19;20183;-79
2023/04/05 12:27:22;;;;;;;16.70;11.23;;;26.30;42.80;;;;;;7286090;19;20208;-79
2023/04/05 12:30:13;;;;;;;15.95;11.15;;;26.10;41.10;;;;;;7303021;19;20173;-78
2023/04/05 12:32:43;;;;;;;20.95;11.27;;;25.10;41.10;;;;;;7285863;19;20268;-80
2023/04/05 12:35:17;;;;;;;18.50;11.00;;;25.20;42.70;;;;;;7287570;19;20174;-80
2023/04/05 12:37:43;;;;;;;19.13;11.63;;;25.00;44.80;;;;;;7285369;19;20177;-80
2023/04/05 12:40:10;;;;;;;20.13;11.97;;;24.70;45.10;;;;;;7284474;19;20178;-79
2023/04/05 12:42:37;;;;;;;19.53;11.77;;;24.10;43.40;;;;;;7286504;19;20257;-79
2023/04/05 12:45:10;;;;;;;20.10;12.00;;;24.00;46.00;;;;;;7286722;19;20180;-79
2023/04/05 12:47:56;;;;;;;19.93;12.03;;;23.10;43.80;;;;;;7282947;19;20189;-79
2023/04/05 12:50:27;;;;;;;20.43;12.00;;;21.60;46.10;;;;;;7264898;19;20595;-79
2023/04/05 12:52:55;;;;;;;22.13;12.63;;;20.70;46.20;;;;;;7282909;19;20192;-79
2023/04/05 12:55:20;;;;;;;26.07;13.37;;;19.80;46.20;;;;;;7287103;19;20661;-79